Terminal Aerodrome Forecast
Issued by NWS Kansas City/Pleasant Hill, MO

Home | Current Version | Previous Version | Text Only | Print | Product List | Glossary On
Versions: 1 2 3 4 5 6 7 8 9 10 11 12
000
FTUS43 KEAX 041120
TAFMCI
TAF
KMCI 041120Z 0412/0512 17005KT 5SM -RA BR OVC013
     FM041500 21006KT 5SM BR OVC008
     FM041800 23007KT P6SM SCT030=

USA.gov is the U.S. government's official web portal to all federal, state and local government web resources and services.